createdAt,value
2022-12-01T00:00:09.245Z,1.83
2022-12-01T00:00:43.975Z,1.85
2022-12-01T00:01:16.960Z,1.86
2022-12-01T00:01:49.169Z,1.88
2022-12-01T00:02:23.996Z,1.90
2022-12-01T00:02:56.228Z,1.92
2022-12-01T00:03:32.054Z,1.93
2022-12-01T00:04:07.059Z,1.91
2022-12-01T00:04:39.124Z,1.89
2022-12-01T00:05:11.240Z,1.88
2022-12-01T00:05:45.919Z,1.87
2022-12-01T00:06:22.017Z,1.88
2022-12-01T00:06:54.151Z,1.87
2022-12-01T00:07:28.834Z,1.88
2022-12-01T00:08:01.544Z,1.90
2022-12-01T00:08:34.404Z,1.92
2022-12-01T00:09:21.526Z,1.94
2022-12-01T00:10:08.622Z,1.92
2022-12-01T00:10:43.308Z,1.90
2022-12-01T00:11:15.375Z,1.90
2022-12-01T00:11:47.724Z,1.87
2022-12-01T00:12:19.882Z,1.86
2022-12-01T00:12:51.979Z,1.85
2022-12-01T00:13:26.653Z,1.84
2022-12-01T00:13:58.782Z,1.82
2022-12-01T00:14:30.853Z,1.81
2022-12-01T00:15:03.009Z,1.83
2022-12-01T00:15:39.585Z,1.82
2022-12-01T00:16:12.389Z,1.80
2022-12-01T00:16:44.871Z,1.78
2022-12-01T00:17:19.710Z,1.81
2022-12-01T00:17:51.905Z,1.80
2022-12-01T00:18:24.006Z,1.80
2022-12-01T00:18:59.195Z,1.80
2022-12-01T00:19:31.383Z,1.79
2022-12-01T00:20:04.860Z,1.79
2022-12-01T00:20:40.243Z,1.79
2022-12-01T00:21:14.487Z,1.76
2022-12-01T00:21:49.430Z,1.75
2022-12-01T00:22:24.125Z,1.74
2022-12-01T00:22:57.004Z,1.75
2022-12-01T00:23:29.081Z,1.75
2022-12-01T00:24:03.797Z,1.76
2022-12-01T00:24:36.056Z,1.75
2022-12-01T00:25:08.450Z,1.76
2022-12-01T00:25:43.116Z,1.79
2022-12-01T00:26:16.655Z,1.80
2022-12-01T00:26:48.714Z,1.84
2022-12-01T00:27:23.377Z,1.84
2022-12-01T00:27:56.047Z,1.84
2022-12-01T00:28:28.104Z,1.84
2022-12-01T00:29:03.127Z,1.85
2022-12-01T00:29:35.726Z,1.85
2022-12-01T00:30:11.129Z,1.85
2022-12-01T00:30:45.813Z,1.83
2022-12-01T00:31:18.001Z,1.78
2022-12-01T00:31:50.173Z,1.78
2022-12-01T00:32:24.913Z,1.74
2022-12-01T00:32:57.013Z,1.71
2022-12-01T00:33:29.090Z,1.71
2022-12-01T00:34:08.227Z,1.70
2022-12-01T00:34:43.295Z,1.68
2022-12-01T00:35:17.011Z,1.71
2022-12-01T00:35:51.704Z,1.72
2022-12-01T00:36:24.465Z,1.70
2022-12-01T00:36:59.236Z,1.71
2022-12-01T00:37:32.297Z,1.69
2022-12-01T00:38:06.941Z,1.71
2022-12-01T00:38:39.383Z,1.73
2022-12-01T00:39:11.470Z,1.73
2022-12-01T00:39:46.471Z,1.71
2022-12-01T00:40:18.805Z,1.69
2022-12-01T00:40:50.899Z,1.68
2022-12-01T00:41:27.494Z,1.66
2022-12-01T00:41:59.594Z,1.63
2022-12-01T00:42:31.897Z,1.64
2022-12-01T00:43:06.625Z,1.64
2022-12-01T00:43:39.828Z,1.64
2022-12-01T00:44:12.503Z,1.62
2022-12-01T00:44:47.317Z,1.63
2022-12-01T00:45:19.396Z,1.64
2022-12-01T00:45:52.344Z,1.66
2022-12-01T00:46:29.004Z,1.64
2022-12-01T00:47:01.132Z,1.62
2022-12-01T00:47:33.204Z,1.61
2022-12-01T00:48:08.063Z,1.60
2022-12-01T00:48:40.267Z,1.59
2022-12-01T00:49:14.014Z,1.57
2022-12-01T00:49:49.285Z,1.53
2022-12-01T00:50:21.490Z,1.54
2022-12-01T00:50:54.963Z,1.52
2022-12-01T00:51:30.253Z,1.50
2022-12-01T00:52:05.246Z,1.49
2022-12-01T00:52:37.473Z,1.49
2022-12-01T00:53:12.166Z,1.49
2022-12-01T00:53:44.252Z,1.50
2022-12-01T00:54:16.405Z,1.50
2022-12-01T00:54:51.105Z,1.52
2022-12-01T00:55:23.184Z,1.52
2022-12-01T00:55:55.446Z,1.53
2022-12-01T00:56:30.107Z,1.52
2022-12-01T00:57:02.189Z,1.50
2022-12-01T00:57:34.250Z,1.49
2022-12-01T00:58:10.049Z,1.51
2022-12-01T00:58:42.145Z,1.49
2022-12-01T00:59:14.364Z,1.49
2022-12-01T00:59:49.270Z,1.45
2022-12-01T01:00:21.865Z,1.44
2022-12-01T01:00:58.153Z,1.45
2022-12-01T01:01:32.946Z,1.41
2022-12-01T01:02:07.026Z,1.35
2022-12-01T01:02:42.017Z,1.33
2022-12-01T01:03:14.143Z,1.32
2022-12-01T01:03:46.217Z,1.33
2022-12-01T01:04:20.969Z,1.34
2022-12-01T01:04:53.064Z,1.34
2022-12-01T01:05:25.217Z,1.32
2022-12-01T01:06:06.182Z,1.36
2022-12-01T01:06:38.274Z,1.34
2022-12-01T01:07:12.948Z,1.35
2022-12-01T01:07:47.771Z,1.35
2022-12-01T01:08:20.010Z,1.36
2022-12-01T01:08:52.108Z,1.37
2022-12-01T01:09:26.830Z,1.36
2022-12-01T01:09:58.936Z,1.35
2022-12-01T01:10:31.046Z,1.36
2022-12-01T01:11:06.772Z,1.34
2022-12-01T01:11:38.875Z,1.33
2022-12-01T01:12:10.994Z,1.34
2022-12-01T01:12:45.665Z,1.33
2022-12-01T01:13:18.893Z,1.32
2022-12-01T01:13:51.225Z,1.30
2022-12-01T01:14:26.158Z,1.28
2022-12-01T01:14:58.223Z,1.28
2022-12-01T01:15:30.346Z,1.28
2022-12-01T01:16:07.369Z,1.23
2022-12-01T01:16:39.521Z,1.20
2022-12-01T01:17:11.719Z,1.20
2022-12-01T01:17:46.388Z,1.20
2022-12-01T01:18:18.526Z,1.20
2022-12-01T01:18:50.623Z,1.20
2022-12-01T01:19:26.492Z,1.21
2022-12-01T01:19:58.545Z,1.19
2022-12-01T01:20:31.212Z,1.19
2022-12-01T01:21:08.488Z,1.17
2022-12-01T01:21:43.045Z,1.14
2022-12-01T01:22:17.708Z,1.15
2022-12-01T01:22:52.374Z,1.15
2022-12-01T01:23:24.725Z,1.14
2022-12-01T01:23:56.833Z,1.16
2022-12-01T01:24:31.504Z,1.17
2022-12-01T01:25:03.830Z,1.16
2022-12-01T01:25:36.586Z,1.15
2022-12-01T01:26:11.335Z,1.16
2022-12-01T01:26:46.022Z,1.16
2022-12-01T01:27:18.206Z,1.15
2022-12-01T01:27:50.565Z,1.19
2022-12-01T01:28:25.211Z,1.14
2022-12-01T01:28:58.580Z,1.14
2022-12-01T01:29:30.636Z,1.13
2022-12-01T01:30:05.354Z,1.13
2022-12-01T01:30:39.749Z,1.11
2022-12-01T01:31:13.811Z,1.10
2022-12-01T01:31:48.498Z,1.09
2022-12-01T01:32:20.558Z,1.10
2022-12-01T01:32:52.776Z,1.08
2022-12-01T01:33:27.777Z,1.10
2022-12-01T01:33:59.929Z,1.10
2022-12-01T01:34:34.715Z,1.11
2022-12-01T01:35:08.335Z,1.11
2022-12-01T01:35:40.451Z,1.11
2022-12-01T01:36:16.509Z,1.11
2022-12-01T01:36:49.123Z,1.09
2022-12-01T01:37:23.771Z,1.10
2022-12-01T01:37:58.492Z,1.09
2022-12-01T01:38:31.214Z,1.08
2022-12-01T01:39:03.782Z,1.07
2022-12-01T01:39:38.463Z,1.08
2022-12-01T01:40:11.688Z,1.08
2022-12-01T01:40:44.798Z,1.09
2022-12-01T01:41:16.952Z,1.07
2022-12-01T01:41:51.635Z,1.08
2022-12-01T01:42:23.794Z,1.07
2022-12-01T01:42:55.854Z,1.05
2022-12-01T01:43:41.361Z,1.02
2022-12-01T01:44:46.163Z,1.00
2022-12-01T01:45:22.389Z,0.97
2022-12-01T01:45:54.604Z,0.99
2022-12-01T01:46:31.078Z,1.01
2022-12-01T01:47:03.202Z,1.01
2022-12-01T01:47:37.429Z,1.03
2022-12-01T01:48:10.409Z,1.03
2022-12-01T01:48:48.238Z,1.04
2022-12-01T01:49:20.440Z,1.03
2022-12-01T01:49:53.688Z,1.04
2022-12-01T01:50:31.184Z,1.04
2022-12-01T01:51:04.008Z,1.03
2022-12-01T01:51:40.910Z,1.05
2022-12-01T01:52:16.378Z,1.04
2022-12-01T01:52:55.968Z,1.04
2022-12-01T01:53:28.311Z,1.02
2022-12-01T01:54:08.829Z,1.03
2022-12-01T01:54:42.660Z,0.95
2022-12-01T01:55:15.820Z,0.96
2022-12-01T01:55:50.577Z,0.96
2022-12-01T01:56:23.329Z,0.97
2022-12-01T01:56:57.807Z,0.98
2022-12-01T01:57:35.794Z,0.96
2022-12-01T01:58:10.400Z,0.93
2022-12-01T01:58:42.758Z,0.93
2022-12-01T01:59:22.964Z,0.93
2022-12-01T01:59:59.377Z,0.90
2022-12-01T02:00:31.725Z,0.90
2022-12-01T02:01:07.441Z,0.92
2022-12-01T02:01:39.634Z,0.93
2022-12-01T02:02:13.182Z,0.93
2022-12-01T02:02:50.405Z,0.93
2022-12-01T02:03:22.709Z,0.92
2022-12-01T02:03:55.485Z,0.92
2022-12-01T02:04:31.534Z,0.87
2022-12-01T02:05:03.830Z,0.86
2022-12-01T02:05:37.341Z,0.84
2022-12-01T02:06:13.814Z,0.83
2022-12-01T02:06:46.305Z,0.83
2022-12-01T02:07:19.932Z,0.84
2022-12-01T02:08:00.076Z,0.85
2022-12-01T02:08:34.632Z,0.84
2022-12-01T02:09:06.705Z,0.85
2022-12-01T02:09:41.373Z,0.85
2022-12-01T02:10:15.407Z,0.84
2022-12-01T02:11:04.620Z,0.83
2022-12-01T02:11:55.278Z,0.80
2022-12-01T02:12:36.739Z,0.73
2022-12-01T02:13:18.336Z,0.73
2022-12-01T02:13:59.715Z,0.73
2022-12-01T02:14:49.859Z,0.70
2022-12-01T02:15:36.283Z,0.65
2022-12-01T02:16:14.668Z,0.64
2022-12-01T02:16:58.739Z,0.65
2022-12-01T02:17:41.686Z,0.64
2022-12-01T02:18:25.563Z,0.64
2022-12-01T02:19:12.017Z,0.65
2022-12-01T02:20:10.924Z,0.65
2022-12-01T02:21:15.213Z,0.60
2022-12-01T02:22:01.795Z,0.60
2022-12-01T02:22:52.278Z,0.59
2022-12-01T02:23:51.438Z,0.55
2022-12-01T02:25:07.140Z,0.50
2022-12-01T02:25:51.396Z,0.51
2022-12-01T02:26:39.666Z,0.49
2022-12-01T02:27:25.526Z,0.51
2022-12-01T02:28:29.991Z,0.51
2022-12-01T02:29:32.882Z,0.50
2022-12-01T02:30:13.698Z,0.52
2022-12-01T02:30:51.033Z,0.51
2022-12-01T02:31:26.940Z,0.52
2022-12-01T02:32:10.631Z,0.52
2022-12-01T02:32:55.256Z,0.53
2022-12-01T02:33:37.627Z,0.54
2022-12-01T02:34:15.274Z,0.58
2022-12-01T02:34:57.332Z,0.60
2022-12-01T02:35:37.247Z,0.61
2022-12-01T02:36:15.917Z,0.61
2022-12-01T02:36:54.447Z,0.61
2022-12-01T02:37:37.042Z,0.63
2022-12-01T02:38:16.489Z,0.62
2022-12-01T02:38:57.302Z,0.62
2022-12-01T02:39:32.993Z,0.61
2022-12-01T02:40:15.206Z,0.62
2022-12-01T02:40:55.929Z,0.58
2022-12-01T02:41:32.991Z,0.58
2022-12-01T02:42:10.475Z,0.59
2022-12-01T02:42:59.723Z,0.58
2022-12-01T02:43:38.406Z,0.55
2022-12-01T02:44:19.690Z,0.57
2022-12-01T02:44:53.267Z,0.57
2022-12-01T02:45:35.287Z,0.58
2022-12-01T02:46:17.836Z,0.57
2022-12-01T02:46:53.240Z,0.56
2022-12-01T02:47:25.881Z,0.55
2022-12-01T02:48:04.570Z,0.58
2022-12-01T02:48:43.129Z,0.55
2022-12-01T02:49:19.795Z,0.53
2022-12-01T02:49:57.378Z,0.53
2022-12-01T02:50:32.968Z,0.52
2022-12-01T02:51:12.850Z,0.52
2022-12-01T02:51:45.981Z,0.49
2022-12-01T02:52:20.044Z,0.48
2022-12-01T02:52:56.126Z,0.49
2022-12-01T02:53:28.429Z,0.48
2022-12-01T02:54:05.246Z,0.47
2022-12-01T02:54:38.578Z,0.46
2022-12-01T02:55:10.686Z,0.44
2022-12-01T02:55:54.198Z,0.43
2022-12-01T02:56:26.690Z,0.41
2022-12-01T02:56:59.121Z,0.41
2022-12-01T02:57:33.882Z,0.40
2022-12-01T02:58:14.484Z,0.39
2022-12-01T02:58:49.134Z,0.38
2022-12-01T02:59:21.297Z,0.37
2022-12-01T02:59:55.666Z,0.37
2022-12-01T03:00:33.154Z,0.35
2022-12-01T03:01:24.516Z,0.34
2022-12-01T03:02:13.428Z,0.32
2022-12-01T03:03:02.707Z,0.30
2022-12-01T03:03:53.858Z,0.28
2022-12-01T03:04:51.718Z,0.26
2022-12-01T03:05:29.183Z,0.23
2022-12-01T03:06:12.666Z,0.24
2022-12-01T03:06:58.025Z,0.25
2022-12-01T03:07:43.757Z,0.22
2022-12-01T03:08:29.279Z,0.21
2022-12-01T03:09:09.637Z,0.20
2022-12-01T03:09:47.067Z,0.15
2022-12-01T03:10:30.152Z,0.16
2022-12-01T03:11:03.144Z,0.16
2022-12-01T03:11:44.217Z,0.18
2022-12-01T03:12:27.555Z,0.16
2022-12-01T03:13:10.518Z,0.15
2022-12-01T03:13:52.207Z,0.16
2022-12-01T03:14:37.194Z,0.17
2022-12-01T03:15:13.231Z,0.16
2022-12-01T03:15:54.333Z,0.16
2022-12-01T03:16:39.390Z,0.14
2022-12-01T03:17:16.671Z,0.13
2022-12-01T03:17:57.838Z,0.14
2022-12-01T03:18:35.755Z,0.13
2022-12-01T03:19:13.698Z,0.12
2022-12-01T03:19:55.486Z,0.11
2022-12-01T03:20:35.433Z,0.11
2022-12-01T03:21:10.535Z,0.11
2022-12-01T03:21:50.793Z,0.12
2022-12-01T03:22:27.209Z,0.12
2022-12-01T03:23:04.844Z,0.13
2022-12-01T03:23:43.886Z,0.15
2022-12-01T03:24:19.572Z,0.15
2022-12-01T03:24:55.284Z,0.16
2022-12-01T03:25:33.021Z,0.17
2022-12-01T03:26:07.429Z,0.17
2022-12-01T03:26:41.661Z,0.18
2022-12-01T03:27:21.407Z,0.19
2022-12-01T03:28:20.147Z,0.18
2022-12-01T03:28:52.643Z,0.14
2022-12-01T03:29:30.993Z,0.15
2022-12-01T03:30:04.509Z,0.13
2022-12-01T03:30:38.093Z,0.13
2022-12-01T03:31:18.641Z,0.12
2022-12-01T03:31:56.973Z,0.11
2022-12-01T03:32:33.745Z,0.11
2022-12-01T03:33:13.083Z,0.11
2022-12-01T03:33:49.349Z,0.10
2022-12-01T03:34:32.674Z,0.10
2022-12-01T03:35:10.975Z,0.09
2022-12-01T03:35:51.656Z,0.06
2022-12-01T03:36:28.000Z,0.03
2022-12-01T03:37:04.894Z,0.04
2022-12-01T03:37:43.778Z,0.03
2022-12-01T03:38:20.808Z,0.04
2022-12-01T03:39:00.215Z,0.05
2022-12-01T03:39:38.369Z,0.04
2022-12-01T03:40:15.292Z,0.04
2022-12-01T03:40:50.998Z,0.06
2022-12-01T03:41:28.896Z,0.05
2022-12-01T03:42:06.826Z,0.06
2022-12-01T03:42:46.001Z,0.05
2022-12-01T03:43:22.544Z,0.05
2022-12-01T03:44:02.206Z,0.04
2022-12-01T03:44:42.721Z,0.02
2022-12-01T03:45:18.141Z,-0.07
2022-12-01T03:45:55.603Z,-0.08
2022-12-01T03:46:41.270Z,-0.08
2022-12-01T03:47:19.373Z,-0.09
2022-12-01T03:47:51.864Z,-0.08
2022-12-01T03:48:27.449Z,-0.07
2022-12-01T03:48:59.590Z,-0.08
2022-12-01T03:49:32.958Z,-0.07
2022-12-01T03:50:13.338Z,-0.08
2022-12-01T03:50:53.423Z,-0.14
2022-12-01T03:51:33.893Z,-0.14
2022-12-01T03:52:13.299Z,-0.20
2022-12-01T03:52:49.829Z,-0.20
2022-12-01T03:53:27.671Z,-0.19
2022-12-01T03:54:08.251Z,-0.19
2022-12-01T03:54:52.313Z,-0.17
2022-12-01T03:55:27.930Z,-0.20
2022-12-01T03:56:07.261Z,-0.20
2022-12-01T03:56:48.316Z,-0.19
2022-12-01T03:57:26.673Z,-0.19
2022-12-01T03:58:08.403Z,-0.19
2022-12-01T03:58:45.007Z,-0.20
2022-12-01T03:59:20.758Z,-0.19
2022-12-01T03:59:56.644Z,-0.18
2022-12-01T04:00:29.941Z,-0.18
2022-12-01T04:01:03.100Z,-0.16
2022-12-01T04:01:38.394Z,-0.15
2022-12-01T04:02:10.673Z,-0.16
2022-12-01T04:02:46.145Z,-0.15
2022-12-01T04:03:22.311Z,-0.14
2022-12-01T04:03:54.386Z,-0.16
2022-12-01T04:04:26.456Z,-0.14
2022-12-01T04:05:01.110Z,-0.13
2022-12-01T04:05:34.972Z,-0.13
2022-12-01T04:06:08.062Z,-0.12
2022-12-01T04:06:43.359Z,-0.14
2022-12-01T04:07:18.055Z,-0.15
2022-12-01T04:07:50.276Z,-0.17
2022-12-01T04:08:22.405Z,-0.19
2022-12-01T04:08:57.037Z,-0.19
2022-12-01T04:09:29.184Z,-0.21
2022-12-01T04:10:03.888Z,-0.20
2022-12-01T04:10:36.013Z,-0.21
2022-12-01T04:11:22.965Z,-0.18
2022-12-01T04:12:10.058Z,-0.21
2022-12-01T04:12:42.210Z,-0.23
2022-12-01T04:13:22.731Z,-0.21
2022-12-01T04:13:57.401Z,-0.22
2022-12-01T04:14:30.185Z,-0.21
2022-12-01T04:15:08.099Z,-0.21
2022-12-01T04:15:40.238Z,-0.21
2022-12-01T04:16:12.389Z,-0.21
2022-12-01T04:16:47.222Z,-0.19
2022-12-01T04:17:19.411Z,-0.20
2022-12-01T04:17:54.446Z,-0.19
2022-12-01T04:18:29.213Z,-0.20
2022-12-01T04:19:01.290Z,-0.20
2022-12-01T04:19:33.365Z,-0.19
2022-12-01T04:20:10.757Z,-0.18
2022-12-01T04:20:43.527Z,-0.19
2022-12-01T04:21:15.606Z,-0.18
2022-12-01T04:21:50.256Z,-0.19
2022-12-01T04:22:23.202Z,-0.20
2022-12-01T04:22:55.360Z,-0.20
2022-12-01T04:23:42.574Z,-0.21
2022-12-01T04:24:17.642Z,-0.23
2022-12-01T04:24:49.792Z,-0.22
2022-12-01T04:25:21.846Z,-0.22
2022-12-01T04:25:59.130Z,-0.22
2022-12-01T04:26:36.513Z,-0.21
2022-12-01T04:27:08.708Z,-0.24
2022-12-01T04:27:40.802Z,-0.24
2022-12-01T04:28:15.578Z,-0.23
2022-12-01T04:28:47.972Z,-0.24
2022-12-01T04:29:20.262Z,-0.23
2022-12-01T04:29:54.954Z,-0.22
2022-12-01T04:30:27.070Z,-0.23
2022-12-01T04:30:59.199Z,-0.23
2022-12-01T04:31:34.344Z,-0.23
2022-12-01T04:32:06.693Z,-0.23
2022-12-01T04:32:42.734Z,-0.22
2022-12-01T04:33:17.450Z,-0.23
2022-12-01T04:33:49.616Z,-0.22
2022-12-01T04:34:24.433Z,-0.21
2022-12-01T04:34:56.545Z,-0.19
2022-12-01T04:35:28.650Z,-0.20
2022-12-01T04:36:04.068Z,-0.22
2022-12-01T04:36:36.338Z,-0.22
2022-12-01T04:37:13.010Z,-0.24
2022-12-01T04:37:45.133Z,-0.25
2022-12-01T04:38:17.277Z,-0.26
2022-12-01T04:38:49.536Z,-0.25
2022-12-01T04:39:24.329Z,-0.25
2022-12-01T04:39:56.415Z,-0.25
2022-12-01T04:40:28.468Z,-0.25
2022-12-01T04:41:03.144Z,-0.26
2022-12-01T04:41:35.229Z,-0.27
2022-12-01T04:42:07.332Z,-0.26
2022-12-01T04:42:42.040Z,-0.26
2022-12-01T04:43:14.137Z,-0.26
2022-12-01T04:43:46.193Z,-0.26
2022-12-01T04:44:18.390Z,-0.25
2022-12-01T04:44:53.089Z,-0.26
2022-12-01T04:45:25.149Z,-0.26
2022-12-01T04:45:57.201Z,-0.26
2022-12-01T04:46:29.389Z,-0.27
2022-12-01T04:47:04.412Z,-0.27
2022-12-01T04:47:36.632Z,-0.29
2022-12-01T04:48:08.759Z,-0.28
2022-12-01T04:48:43.641Z,-0.28
2022-12-01T04:49:18.358Z,-0.29
2022-12-01T04:49:50.692Z,-0.29
2022-12-01T04:50:23.155Z,-0.29
2022-12-01T04:50:55.604Z,-0.31
2022-12-01T04:51:30.282Z,-0.30
2022-12-01T04:52:02.403Z,-0.30
2022-12-01T04:52:37.293Z,-0.32
2022-12-01T04:53:11.973Z,-0.34
2022-12-01T04:53:44.036Z,-0.33
2022-12-01T04:54:19.097Z,-0.31
2022-12-01T04:54:51.180Z,-0.32
2022-12-01T04:55:23.249Z,-0.32
2022-12-01T04:55:55.361Z,-0.31
2022-12-01T04:56:30.048Z,-0.34
2022-12-01T04:57:02.255Z,-0.34
2022-12-01T04:57:36.931Z,-0.35
2022-12-01T04:58:09.030Z,-0.36
2022-12-01T04:58:41.181Z,-0.35
2022-12-01T04:59:15.967Z,-0.34
2022-12-01T04:59:48.587Z,-0.34
2022-12-01T05:00:20.961Z,-0.35
2022-12-01T05:00:53.088Z,-0.34
2022-12-01T05:01:27.937Z,-0.34
2022-12-01T05:02:00.163Z,-0.36
2022-12-01T05:02:32.340Z,-0.37
2022-12-01T05:03:12.119Z,-0.37
2022-12-01T05:03:49.712Z,-0.40
2022-12-01T05:04:24.370Z,-0.41
2022-12-01T05:04:56.428Z,-0.42
2022-12-01T05:05:28.493Z,-0.42
2022-12-01T05:06:03.776Z,-0.40
2022-12-01T05:06:38.469Z,-0.42
2022-12-01T05:07:10.644Z,-0.41
2022-12-01T05:07:42.712Z,-0.40
2022-12-01T05:08:14.833Z,-0.41
2022-12-01T05:08:50.261Z,-0.41
2022-12-01T05:09:22.345Z,-0.42
2022-12-01T05:09:55.185Z,-0.41
2022-12-01T05:10:29.918Z,-0.42
2022-12-01T05:11:02.938Z,-0.41
2022-12-01T05:11:35.373Z,-0.41
2022-12-01T05:12:10.166Z,-0.41
2022-12-01T05:12:42.303Z,-0.42
2022-12-01T05:13:14.371Z,-0.43
2022-12-01T05:13:50.797Z,-0.41
2022-12-01T05:14:22.875Z,-0.45
2022-12-01T05:14:55.013Z,-0.42
2022-12-01T05:15:29.695Z,-0.42
2022-12-01T05:16:06.303Z,-0.41
2022-12-01T05:16:38.683Z,-0.43
2022-12-01T05:17:13.462Z,-0.42
2022-12-01T05:17:45.532Z,-0.43
2022-12-01T05:18:17.743Z,-0.43
2022-12-01T05:19:18.029Z,-0.42
2022-12-01T05:20:05.165Z,-0.49
2022-12-01T05:20:52.337Z,-0.50
2022-12-01T05:21:24.429Z,-0.52
2022-12-01T05:21:56.550Z,-0.49
2022-12-01T05:23:03.273Z,-0.47
2022-12-01T05:23:23.400Z,-0.52
2022-12-01T05:23:55.534Z,-0.51
2022-12-01T05:24:30.290Z,-0.48
2022-12-01T05:25:02.376Z,-0.49
2022-12-01T05:25:34.725Z,-0.46
2022-12-01T05:26:11.494Z,-0.46
2022-12-01T05:26:44.691Z,-0.47
2022-12-01T05:27:16.785Z,-0.46
2022-12-01T05:27:48.906Z,-0.46
2022-12-01T05:28:25.329Z,-0.46
2022-12-01T05:28:57.448Z,-0.46
2022-12-01T05:29:33.140Z,-0.44
2022-12-01T05:30:06.765Z,-0.45
2022-12-01T05:30:38.888Z,-0.46
2022-12-01T05:31:13.580Z,-0.46
2022-12-01T05:31:46.440Z,-0.47
2022-12-01T05:32:18.545Z,-0.46
2022-12-01T05:32:50.768Z,-0.45
2022-12-01T05:33:26.621Z,-0.46
2022-12-01T05:34:01.583Z,-0.47
2022-12-01T05:34:36.298Z,-0.47
2022-12-01T05:35:09.194Z,-0.48
2022-12-01T05:35:41.489Z,-0.48
2022-12-01T05:36:16.173Z,-0.49
2022-12-01T05:36:48.287Z,-0.50
2022-12-01T05:37:20.365Z,-0.49
2022-12-01T05:37:55.617Z,-0.49
2022-12-01T05:38:27.690Z,-0.50
2022-12-01T05:38:59.912Z,-0.49
2022-12-01T05:39:34.705Z,-0.49
2022-12-01T05:40:08.348Z,-0.50
2022-12-01T05:40:40.502Z,-0.51
2022-12-01T05:41:12.570Z,-0.51
2022-12-01T05:41:47.339Z,-0.51
2022-12-01T05:42:19.418Z,-0.52
2022-12-01T05:42:51.530Z,-0.51
2022-12-01T05:43:29.456Z,-0.51
2022-12-01T05:44:01.878Z,-0.53
2022-12-01T05:44:33.952Z,-0.52
2022-12-01T05:45:10.170Z,-0.51
2022-12-01T05:45:42.350Z,-0.51
2022-12-01T05:46:14.578Z,-0.52
2022-12-01T05:46:49.494Z,-0.51
2022-12-01T05:47:21.620Z,-0.53
2022-12-01T05:47:55.136Z,-0.53
2022-12-01T05:48:27.232Z,-0.54
2022-12-01T05:49:04.516Z,-0.53
2022-12-01T05:49:36.584Z,-0.54
2022-12-01T05:50:09.552Z,-0.55
2022-12-01T05:50:44.375Z,-0.55
2022-12-01T05:51:18.535Z,-0.56
2022-12-01T05:51:50.638Z,-0.54
2022-12-01T05:52:25.273Z,-0.53
2022-12-01T05:52:57.684Z,-0.53
2022-12-01T05:53:29.961Z,-0.51
2022-12-01T05:54:04.977Z,-0.52
2022-12-01T05:54:37.055Z,-0.53
2022-12-01T05:55:09.854Z,-0.52
2022-12-01T05:55:42.548Z,-0.52
2022-12-01T05:56:17.251Z,-0.50
2022-12-01T05:56:49.410Z,-0.51
2022-12-01T05:57:21.569Z,-0.50
2022-12-01T05:57:56.286Z,-0.50
2022-12-01T05:58:28.777Z,-0.50
2022-12-01T05:59:00.923Z,-0.50
2022-12-01T05:59:35.623Z,-0.49
2022-12-01T06:00:09.191Z,-0.50
2022-12-01T06:00:46.171Z,-0.51
2022-12-01T06:01:21.177Z,-0.50
2022-12-01T06:01:53.445Z,-0.51
2022-12-01T06:02:26.932Z,-0.49
2022-12-01T06:03:02.170Z,-0.48
2022-12-01T06:03:34.403Z,-0.49
2022-12-01T06:04:11.774Z,-0.48
2022-12-01T06:04:44.440Z,-0.49
2022-12-01T06:05:16.731Z,-0.48
2022-12-01T06:05:51.627Z,-0.47
2022-12-01T06:06:23.698Z,-0.47
2022-12-01T06:06:55.762Z,-0.46
2022-12-01T06:07:30.847Z,-0.45
2022-12-01T06:08:03.219Z,-0.46
2022-12-01T06:08:35.452Z,-0.45
2022-12-01T06:09:10.695Z,-0.44
2022-12-01T06:09:42.810Z,-0.43
2022-12-01T06:10:14.911Z,-0.45
2022-12-01T06:10:49.964Z,-0.40
2022-12-01T06:11:22.116Z,-0.41
2022-12-01T06:11:54.217Z,-0.40
2022-12-01T06:12:29.157Z,-0.39
2022-12-01T06:13:01.278Z,-0.41
2022-12-01T06:13:36.077Z,-0.39
2022-12-01T06:14:08.422Z,-0.38
2022-12-01T06:14:40.506Z,-0.39
2022-12-01T06:15:15.809Z,-0.38
2022-12-01T06:15:56.845Z,-0.36
2022-12-01T06:16:31.576Z,-0.41
2022-12-01T06:17:03.986Z,-0.41
2022-12-01T06:17:40.254Z,-0.40
2022-12-01T06:18:15.395Z,-0.41
2022-12-01T06:18:47.567Z,-0.40
2022-12-01T06:19:22.273Z,-0.41
2022-12-01T06:19:56.941Z,-0.40
2022-12-01T06:20:29.061Z,-0.41
2022-12-01T06:21:04.062Z,-0.39
2022-12-01T06:21:36.267Z,-0.39
2022-12-01T06:22:08.354Z,-0.37
2022-12-01T06:22:43.049Z,-0.36
2022-12-01T06:23:15.227Z,-0.37
2022-12-01T06:23:49.934Z,-0.36
2022-12-01T06:24:22.010Z,-0.36
2022-12-01T06:24:54.093Z,-0.36
2022-12-01T06:25:28.886Z,-0.36
2022-12-01T06:26:01.090Z,-0.36
2022-12-01T06:26:33.295Z,-0.38
2022-12-01T06:27:08.170Z,-0.38
2022-12-01T06:27:40.272Z,-0.38
2022-12-01T06:28:15.096Z,-0.37
2022-12-01T06:28:47.335Z,-0.37
2022-12-01T06:29:19.658Z,-0.36
2022-12-01T06:29:54.439Z,-0.35
2022-12-01T06:30:27.091Z,-0.35
2022-12-01T06:31:03.659Z,-0.38
2022-12-01T06:31:35.966Z,-0.36
2022-12-01T06:32:08.150Z,-0.36
2022-12-01T06:32:43.172Z,-0.35
2022-12-01T06:33:15.263Z,-0.36
2022-12-01T06:33:47.414Z,-0.35
2022-12-01T06:34:24.746Z,-0.36
2022-12-01T06:34:56.874Z,-0.36
2022-12-01T06:35:29.000Z,-0.35
2022-12-01T06:36:05.085Z,-0.34
2022-12-01T06:36:37.182Z,-0.36
2022-12-01T06:37:09.376Z,-0.34
2022-12-01T06:37:44.054Z,-0.33
2022-12-01T06:38:16.156Z,-0.33
2022-12-01T06:38:50.977Z,-0.34
2022-12-01T06:39:23.064Z,-0.33
2022-12-01T06:39:57.763Z,-0.31
2022-12-01T06:40:30.228Z,-0.32
2022-12-01T06:41:02.850Z,-0.31
2022-12-01T06:41:37.578Z,-0.30
2022-12-01T06:42:10.002Z,-0.31
2022-12-01T06:42:44.746Z,-0.30
2022-12-01T06:43:16.836Z,-0.30
2022-12-01T06:43:48.917Z,-0.29
2022-12-01T06:44:23.585Z,-0.27
2022-12-01T06:44:55.662Z,-0.27
2022-12-01T06:45:27.860Z,-0.25
2022-12-01T06:46:02.721Z,-0.24
2022-12-01T06:46:34.984Z,-0.24
2022-12-01T06:47:08.288Z,-0.23
2022-12-01T06:47:43.357Z,-0.24
2022-12-01T06:48:15.455Z,-0.24
2022-12-01T06:48:48.939Z,-0.23
2022-12-01T06:49:26.308Z,-0.23
2022-12-01T06:49:58.497Z,-0.25
2022-12-01T06:50:33.154Z,-0.25
2022-12-01T06:51:05.628Z,-0.25
2022-12-01T06:51:37.842Z,-0.29
2022-12-01T06:52:13.141Z,-0.23
2022-12-01T06:52:45.635Z,-0.24
2022-12-01T06:53:17.906Z,-0.25
2022-12-01T06:53:58.656Z,-0.23
2022-12-01T06:54:34.604Z,-0.24
2022-12-01T06:55:07.540Z,-0.23
2022-12-01T06:55:42.611Z,-0.22
2022-12-01T06:56:15.188Z,-0.22
2022-12-01T06:56:47.525Z,-0.20
2022-12-01T06:57:22.460Z,-0.18
2022-12-01T06:57:55.024Z,-0.18
2022-12-01T06:58:27.437Z,-0.18
2022-12-01T06:59:02.517Z,-0.17
2022-12-01T06:59:35.101Z,-0.17
2022-12-01T07:00:11.338Z,-0.17
2022-12-01T07:00:47.692Z,-0.19
2022-12-01T07:01:24.131Z,-0.20
2022-12-01T07:01:59.192Z,-0.20
2022-12-01T07:02:31.370Z,-0.19
2022-12-01T07:03:03.599Z,-0.19
2022-12-01T07:03:38.271Z,-0.19
2022-12-01T07:04:10.386Z,-0.19
2022-12-01T07:04:45.060Z,-0.18
2022-12-01T07:05:19.894Z,-0.19
2022-12-01T07:05:56.400Z,-0.18
2022-12-01T07:06:30.108Z,-0.16
2022-12-01T07:07:04.768Z,-0.15
2022-12-01T07:07:37.482Z,-0.14
2022-12-01T07:08:09.751Z,-0.10
2022-12-01T07:08:44.730Z,-0.08
2022-12-01T07:09:16.830Z,-0.07
2022-12-01T07:09:51.895Z,-0.06
2022-12-01T07:10:24.126Z,-0.05
2022-12-01T07:11:00.305Z,-0.05
2022-12-01T07:11:36.596Z,-0.03
2022-12-01T07:12:08.716Z,-0.02
2022-12-01T07:12:43.609Z,-0.01
2022-12-01T07:13:15.762Z,0.00
2022-12-01T07:13:50.981Z,0.01
2022-12-01T07:14:25.178Z,0.02
2022-12-01T07:15:00.385Z,0.02
2022-12-01T07:15:32.472Z,0.03
2022-12-01T07:16:08.087Z,0.04
2022-12-01T07:16:40.244Z,0.08
2022-12-01T07:17:14.994Z,0.10
2022-12-01T07:17:47.065Z,0.12
2022-12-01T07:18:19.230Z,0.14
2022-12-01T07:18:53.922Z,0.14
2022-12-01T07:19:26.161Z,0.14
2022-12-01T07:20:01.010Z,0.15
2022-12-01T07:20:35.674Z,0.16
2022-12-01T07:21:10.687Z,0.16
2022-12-01T07:21:42.852Z,0.16
2022-12-01T07:22:17.964Z,0.17
2022-12-01T07:22:50.094Z,0.19
2022-12-01T07:23:22.218Z,0.20
2022-12-01T07:23:57.557Z,0.20
2022-12-01T07:24:29.890Z,0.19
2022-12-01T07:25:02.266Z,0.19
2022-12-01T07:25:37.073Z,0.19
2022-12-01T07:26:11.807Z,0.17
2022-12-01T07:26:44.178Z,0.19
2022-12-01T07:27:18.841Z,0.21
2022-12-01T07:27:50.926Z,0.20
2022-12-01T07:28:25.668Z,0.22
2022-12-01T07:28:58.034Z,0.23
2022-12-01T07:29:32.718Z,0.23
2022-12-01T07:30:06.673Z,0.24
2022-12-01T07:30:39.348Z,0.27
2022-12-01T07:31:16.834Z,0.27
2022-12-01T07:31:48.941Z,0.28
2022-12-01T07:32:23.596Z,0.30
2022-12-01T07:32:55.707Z,0.31
2022-12-01T07:33:27.910Z,0.33
2022-12-01T07:34:02.561Z,0.34
2022-12-01T07:34:34.752Z,0.33
2022-12-01T07:35:12.969Z,0.35
2022-12-01T07:35:45.117Z,0.35
2022-12-01T07:36:17.202Z,0.38
2022-12-01T07:36:51.936Z,0.41
2022-12-01T07:37:24.039Z,0.42
2022-12-01T07:37:56.751Z,0.42
2022-12-01T07:38:32.157Z,0.45
2022-12-01T07:39:05.598Z,0.45
2022-12-01T07:39:40.279Z,0.45
2022-12-01T07:40:12.721Z,0.47
2022-12-01T07:40:44.779Z,0.47
2022-12-01T07:41:21.140Z,0.48
2022-12-01T07:41:55.665Z,0.49
2022-12-01T07:42:27.791Z,0.50
2022-12-01T07:43:02.703Z,0.53